Time;durP1;ratioP1;P1;durP2;ratioP2;P2;SDS_P1;SDS_P2;PMS_P1;PMS_P2;Temp;Humidity;BMP_temperature;BMP_pressure;BME280_temperature;BME280_humidity;BME280_pressure;Samples;Min_cycle;Max_cycle;Signal;HPM_P1;HPM_P2
2021/11/06 00:01:24;;;;;;;33.38;15.90;;;;;;;-149.78;100.00;50451.88;5030832;28;20065;-60
2021/11/06 00:03:50;;;;;;;30.73;14.45;;;;;;;-149.78;100.00;50432.31;5032345;28;20092;-59
2021/11/06 00:06:16;;;;;;;21.77;11.07;;;;;;;-149.78;100.00;50424.50;5039987;28;20037;-60
2021/11/06 00:08:42;;;;;;;19.77;10.30;;;;;;;-149.78;100.00;50420.59;5020710;28;20044;-59
2021/11/06 00:11:07;;;;;;;20.90;10.98;;;;;;;-149.78;100.00;50420.59;5013447;28;20076;-59
2021/11/06 00:13:34;;;;;;;21.67;11.60;;;;;;;-149.78;100.00;50436.25;5023649;28;20040;-59
2021/11/06 00:15:59;;;;;;;21.33;10.43;;;;;;;-149.78;100.00;50432.31;5028213;28;20091;-59
2021/11/06 00:18:25;;;;;;;17.02;9.38;;;;;;;-149.78;100.00;50420.59;5025207;28;20033;-59
2021/11/06 00:20:51;;;;;;;18.83;9.60;;;;;;;-149.78;100.00;50428.41;5026389;28;20045;-59
2021/11/06 00:23:18;;;;;;;13.07;8.73;;;;;;;-149.78;100.00;50459.72;5030785;28;20025;-59
2021/11/06 00:25:43;;;;;;;15.57;8.32;;;;;;;-149.78;100.00;50479.28;5017778;28;20041;-59
2021/11/06 00:28:09;;;;;;;15.95;9.32;;;;;;;-149.78;100.00;50428.41;5028636;28;20128;-60
2021/11/06 00:30:35;;;;;;;16.13;8.82;;;;;;;-149.78;100.00;50432.31;5021479;28;20120;-59
2021/11/06 00:33:01;;;;;;;15.13;7.88;;;;;;;-149.78;100.00;50447.97;5022879;28;20056;-61
2021/11/06 00:35:27;;;;;;;16.00;8.02;;;;;;;-149.78;100.00;50434.28;5014384;28;20030;-59
2021/11/06 00:37:52;;;;;;;12.75;7.55;;;;;;;-149.78;100.00;50426.47;5020918;28;20029;-59
2021/11/06 00:40:18;;;;;;;13.80;7.63;;;;;;;-149.78;100.00;50463.63;5024140;28;20044;-59
2021/11/06 00:42:45;;;;;;;10.40;6.80;;;;;;;-149.78;100.00;50416.69;5026779;28;20092;-59
2021/11/06 00:45:11;;;;;;;15.80;7.03;;;;;;;-149.78;100.00;50436.25;5031880;28;20036;-59
2021/11/06 00:47:38;;;;;;;9.43;6.20;;;;;;;-149.78;100.00;50438.19;5036092;28;20056;-59
2021/11/06 00:50:07;;;;;;;11.38;6.47;;;;;;;-149.78;100.00;50440.16;5025117;28;20033;-59
2021/11/06 00:52:33;;;;;;;9.68;5.82;;;;;;;-149.78;100.00;50430.38;5026145;28;20034;-59
2021/11/06 00:54:58;;;;;;;11.10;5.63;;;;;;;-149.78;100.00;50467.53;5016333;28;20025;-59
2021/11/06 00:57:24;;;;;;;11.70;6.28;;;;;;;-149.78;100.00;50440.16;5021463;28;20026;-59
2021/11/06 00:59:50;;;;;;;8.35;5.45;;;;;;;-149.78;100.00;50414.72;5008148;28;20041;-59
2021/11/06 01:02:16;;;;;;;13.80;5.70;;;;;;;-149.78;100.00;50440.16;5031020;28;20037;-60
2021/11/06 01:04:43;;;;;;;10.70;5.57;;;;;;;-149.78;100.00;50424.50;5023774;28;20443;-60
2021/11/06 01:07:09;;;;;;;9.95;5.47;;;;;;;-149.78;100.00;50412.78;5031041;28;20393;-60
2021/11/06 01:09:35;;;;;;;11.15;5.35;;;;;;;-149.78;100.00;50434.28;5024119;28;20041;-60
2021/11/06 01:12:02;;;;;;;8.48;5.13;;;;;;;-149.78;100.00;50404.94;5026617;28;20076;-59
2021/11/06 01:14:27;;;;;;;8.00;4.53;;;;;;;-149.78;100.00;50420.59;5026458;28;20026;-59
2021/11/06 01:16:53;;;;;;;9.85;4.90;;;;;;;-149.78;100.00;50469.50;5028614;28;20472;-59
2021/11/06 01:19:19;;;;;;;7.15;5.10;;;;;;;-149.78;100.00;50436.25;5031513;28;20037;-60
2021/11/06 01:21:45;;;;;;;8.27;4.60;;;;;;;-149.78;100.00;50428.41;5022145;28;20420;-60
2021/11/06 01:24:11;;;;;;;10.65;5.03;;;;;;;-149.78;100.00;50416.69;5019959;28;20073;-60
2021/11/06 01:26:37;;;;;;;7.82;4.75;;;;;;;-149.78;100.00;50406.91;5019605;28;20125;-59
2021/11/06 01:29:03;;;;;;;8.60;5.00;;;;;;;-149.78;100.00;50447.97;5019389;28;20470;-59
2021/11/06 01:31:29;;;;;;;7.72;4.35;;;;;;;-149.78;100.00;50389.31;5033079;28;20047;-59
2021/11/06 01:33:55;;;;;;;6.55;4.07;;;;;;;-149.78;100.00;50436.25;5013350;28;20038;-60
2021/11/06 01:36:21;;;;;;;8.00;4.60;;;;;;;-149.78;100.00;50397.13;5014136;28;20709;-60
2021/11/06 01:38:47;;;;;;;7.32;4.57;;;;;;;-149.78;100.00;50412.78;5030304;28;20037;-60
2021/11/06 01:41:12;;;;;;;9.40;4.72;;;;;;;-149.78;100.00;50424.50;5030387;28;20025;-59
2021/11/06 01:43:39;;;;;;;8.82;4.68;;;;;;;-149.78;100.00;50416.69;5039566;28;20579;-60
2021/11/06 01:46:09;;;;;;;6.70;4.35;;;;;;;-149.78;100.00;50428.41;5019422;28;20117;-59
2021/11/06 01:48:35;;;;;;;7.78;4.47;;;;;;;-149.78;100.00;50416.69;5038096;28;20116;-59
2021/11/06 01:51:03;;;;;;;7.40;4.85;;;;;;;-149.78;100.00;50455.81;5023281;28;20026;-60
2021/11/06 01:53:29;;;;;;;8.77;4.57;;;;;;;-149.78;100.00;50428.41;5020852;28;20041;-59
2021/11/06 01:55:58;;;;;;;10.10;4.88;;;;;;;-149.78;100.00;50424.50;5024945;28;20575;-60
2021/11/06 01:58:25;;;;;;;8.00;4.90;;;;;;;-149.78;100.00;50412.78;5023704;28;20198;-60
2021/11/06 02:00:50;;;;;;;7.80;4.75;;;;;;;-149.78;100.00;50420.59;5033896;28;20059;-59
2021/11/06 02:03:16;;;;;;;7.00;4.30;;;;;;;-149.78;100.00;50408.84;5030807;28;20366;-59
2021/11/06 02:05:45;;;;;;;8.25;4.80;;;;;;;-149.78;100.00;50447.97;5026734;28;20029;-59
2021/11/06 02:08:14;;;;;;;6.63;4.43;;;;;;;-149.78;100.00;50451.88;5026642;28;20389;-59
2021/11/06 02:10:41;;;;;;;8.80;4.80;;;;;;;-149.78;100.00;50459.72;5025852;28;20445;-60
2021/11/06 02:13:08;;;;;;;6.90;4.15;;;;;;;-149.78;100.00;50432.31;5022698;28;20045;-60
2021/11/06 02:15:37;;;;;;;6.40;3.72;;;;;;;-149.78;100.00;50455.81;5028355;28;20061;-60
2021/11/06 02:18:05;;;;;;;6.32;4.00;;;;;;;-149.78;100.00;50440.16;5033639;28;20044;-60
2021/11/06 02:20:30;;;;;;;7.40;3.97;;;;;;;-149.78;100.00;50455.81;5033133;28;20120;-60
2021/11/06 02:22:56;;;;;;;6.80;3.83;;;;;;;-149.78;100.00;50473.41;5029506;28;20141;-59
2021/11/06 02:25:21;;;;;;;8.07;4.10;;;;;;;-149.78;100.00;50471.44;5024216;28;20026;-62
2021/11/06 02:27:48;;;;;;;6.95;3.67;;;;;;;-149.78;100.00;50483.19;5034978;28;20042;-60
2021/11/06 02:30:16;;;;;;;7.60;3.42;;;;;;;-149.78;100.00;50434.28;5019969;28;20132;-60
2021/11/06 02:32:44;;;;;;;6.00;3.58;;;;;;;-149.78;100.00;50436.25;5040797;28;20033;-60
2021/11/06 02:35:10;;;;;;;9.43;3.92;;;;;;;-149.78;100.00;50432.31;5048088;28;20033;-59
2021/11/06 02:37:36;;;;;;;7.07;3.90;;;;;;;-149.78;100.00;50440.16;5033628;28;20049;-60
2021/11/06 02:40:04;;;;;;;7.30;3.72;;;;;;;-149.78;100.00;50469.50;5041101;28;20479;-59
2021/11/06 02:42:30;;;;;;;5.93;3.70;;;;;;;-149.78;100.00;50455.81;5026286;28;20361;-59
2021/11/06 02:44:57;;;;;;;6.50;3.67;;;;;;;-149.78;100.00;50428.41;5031994;28;20025;-59
2021/11/06 02:47:23;;;;;;;7.72;4.18;;;;;;;-149.78;100.00;50455.81;5024268;28;20052;-59
2021/11/06 02:49:48;;;;;;;7.78;4.13;;;;;;;-149.78;100.00;50420.59;5044988;28;20029;-60
2021/11/06 02:52:14;;;;;;;7.30;3.50;;;;;;;-149.78;100.00;50436.25;5029678;28;20117;-60
2021/11/06 02:54:40;;;;;;;6.38;3.83;;;;;;;-149.78;100.00;50428.41;5039071;28;20037;-59
2021/11/06 02:57:10;;;;;;;6.70;3.65;;;;;;;-149.78;100.00;50451.88;5019654;28;20041;-60
2021/11/06 02:59:35;;;;;;;5.90;3.70;;;;;;;-149.78;100.00;50451.88;5033697;28;20487;-60
2021/11/06 03:02:01;;;;;;;6.30;3.40;;;;;;;-149.78;100.00;50467.53;5022741;28;20053;-60
2021/11/06 03:04:27;;;;;;;7.22;3.60;;;;;;;-149.78;100.00;50404.94;5026026;28;20045;-59
2021/11/06 03:06:52;;;;;;;8.32;4.05;;;;;;;-149.78;100.00;50479.28;5033326;28;20033;-60
2021/11/06 03:09:18;;;;;;;6.53;3.60;;;;;;;-149.78;100.00;50451.88;5026542;28;20036;-60
2021/11/06 03:11:44;;;;;;;6.75;4.07;;;;;;;-149.78;100.00;50451.88;5037640;28;20090;-60
2021/11/06 03:14:11;;;;;;;4.18;3.13;;;;;;;-149.78;100.00;50455.81;5043036;28;20041;-60
2021/11/06 03:16:40;;;;;;;8.43;3.95;;;;;;;-149.78;100.00;50404.94;5039140;28;20021;-60
2021/11/06 03:19:06;;;;;;;6.43;3.95;;;;;;;-149.78;100.00;50424.50;5025844;28;20144;-60
2021/11/06 03:21:32;;;;;;;8.00;4.35;;;;;;;-149.78;100.00;50467.53;5032863;28;20037;-59
2021/11/06 03:23:58;;;;;;;5.78;3.30;;;;;;;-149.78;100.00;50451.88;5032935;28;20088;-60
2021/11/06 03:26:23;;;;;;;8.07;3.78;;;;;;;-149.78;100.00;50432.31;5025314;28;20036;-60
2021/11/06 03:28:49;;;;;;;9.73;3.83;;;;;;;-149.78;100.00;50428.41;5019324;28;20572;-59
2021/11/06 03:31:14;;;;;;;6.53;3.88;;;;;;;-149.78;100.00;50434.28;5031923;28;20875;-60
2021/11/06 03:33:40;;;;;;;9.48;3.67;;;;;;;-149.78;100.00;50438.19;5017131;28;20096;-60
2021/11/06 03:36:06;;;;;;;6.28;3.00;;;;;;;-149.78;100.00;50459.72;5020060;28;20029;-60
2021/11/06 03:38:32;;;;;;;7.07;3.58;;;;;;;-149.78;100.00;50459.72;5032257;28;20033;-60
2021/11/06 03:40:58;;;;;;;8.00;3.88;;;;;;;-149.78;100.00;50401.03;5027715;28;20069;-60
2021/11/06 03:43:23;;;;;;;6.72;3.50;;;;;;;-149.78;100.00;50440.16;5026040;28;20400;-59
2021/11/06 03:45:50;;;;;;;9.13;3.95;;;;;;;-149.78;100.00;50428.41;5031241;28;20386;-59
2021/11/06 03:48:16;;;;;;;6.90;3.28;;;;;;;-149.78;100.00;50440.16;5026213;28;20501;-60
2021/11/06 03:50:42;;;;;;;6.10;3.53;;;;;;;-149.78;100.00;50479.28;5025569;28;20041;-60
2021/11/06 03:53:07;;;;;;;6.68;3.53;;;;;;;-149.78;100.00;50436.25;5018611;28;20042;-60
2021/11/06 03:55:33;;;;;;;6.93;3.60;;;;;;;-149.78;100.00;50447.97;5026750;28;20037;-60
2021/11/06 03:57:59;;;;;;;7.03;3.80;;;;;;;-149.78;100.00;50428.41;5027461;28;20041;-60
2021/11/06 04:00:25;;;;;;;7.78;3.42;;;;;;;-149.78;100.00;50459.72;5031924;28;20030;-60
2021/11/06 04:02:50;;;;;;;9.20;3.40;;;;;;;-149.78;100.00;50455.81;5028034;28;20064;-60
2021/11/06 04:05:16;;;;;;;8.40;3.40;;;;;;;-149.78;100.00;50467.53;5030453;28;20030;-60
2021/11/06 04:07:43;;;;;;;9.50;3.58;;;;;;;-149.78;100.00;50475.34;5019791;28;20081;-60
2021/11/06 04:10:10;;;;;;;6.90;3.72;;;;;;;-149.78;100.00;50475.34;5032446;28;20481;-60
2021/11/06 04:12:37;;;;;;;7.57;3.90;;;;;;;-149.78;100.00;50436.25;5033924;28;20369;-59
2021/11/06 04:15:05;;;;;;;5.85;3.88;;;;;;;-149.78;100.00;50436.25;5033029;28;20114;-60
2021/11/06 04:17:31;;;;;;;8.20;3.60;;;;;;;-149.78;100.00;50440.16;5024308;28;20037;-59
2021/11/06 04:19:57;;;;;;;7.93;3.88;;;;;;;-149.78;100.00;50422.56;5015425;28;20486;-59
2021/11/06 04:22:23;;;;;;;8.23;3.97;;;;;;;-149.78;100.00;50459.72;5033346;28;20493;-59
2021/11/06 04:24:55;;;;;;;9.07;3.83;;;;;;;-149.78;100.00;50424.50;5017432;28;20362;-59
2021/11/06 04:27:21;;;;;;;7.03;3.85;;;;;;;-149.78;100.00;50416.69;5019152;28;20063;-59
2021/11/06 04:29:46;;;;;;;6.75;3.85;;;;;;;-149.78;100.00;50473.41;5023510;28;20037;-59
2021/11/06 04:32:12;;;;;;;6.95;3.90;;;;;;;-149.78;100.00;50451.88;5022073;28;20095;-59
2021/11/06 04:34:38;;;;;;;6.90;3.38;;;;;;;-149.78;100.00;50424.50;5024300;28;20161;-59
2021/11/06 04:37:04;;;;;;;11.75;3.67;;;;;;;-149.78;100.00;50420.59;5014372;28;20121;-59
2021/11/06 04:39:29;;;;;;;11.27;5.15;;;;;;;-149.78;100.00;50420.59;5013571;28;20119;-60
2021/11/06 04:41:55;;;;;;;6.18;3.20;;;;;;;-149.78;100.00;50410.81;5028020;28;20034;-59
2021/11/06 04:44:20;;;;;;;8.77;3.78;;;;;;;-149.78;100.00;50447.97;5030538;28;20498;-60
2021/11/06 04:46:46;;;;;;;6.90;3.30;;;;;;;-149.78;100.00;50436.25;5032914;28;20034;-60
2021/11/06 04:49:12;;;;;;;6.63;3.45;;;;;;;-149.78;100.00;50410.81;5037494;28;20095;-59
2021/11/06 04:51:37;;;;;;;8.98;3.65;;;;;;;-149.78;100.00;50397.13;5018717;28;20117;-59
2021/11/06 04:54:03;;;;;;;10.23;3.75;;;;;;;-149.78;100.00;50471.44;5014433;28;20065;-59
2021/11/06 04:56:28;;;;;;;7.53;3.30;;;;;;;-149.78;100.00;50436.25;5033421;28;20034;-60
2021/11/06 04:58:54;;;;;;;8.10;3.80;;;;;;;-149.78;100.00;50444.06;5034734;28;20041;-60
2021/11/06 05:01:20;;;;;;;5.70;3.47;;;;;;;-149.78;100.00;50459.72;5024868;28;20120;-60
2021/11/06 05:03:45;;;;;;;6.75;3.28;;;;;;;-149.78;100.00;50412.78;5022134;28;20037;-60
2021/11/06 05:06:11;;;;;;;7.30;3.30;;;;;;;-149.78;100.00;50447.97;5030704;28;20030;-60
2021/11/06 05:08:37;;;;;;;5.35;3.53;;;;;;;-149.78;100.00;50463.63;5038974;28;20483;-60
2021/11/06 05:11:03;;;;;;;6.65;3.50;;;;;;;-149.78;100.00;50444.06;5026610;28;20486;-60
2021/11/06 05:13:29;;;;;;;7.05;2.85;;;;;;;-149.78;100.00;50414.72;5021847;28;20033;-60
2021/11/06 05:15:57;;;;;;;7.75;3.80;;;;;;;-149.78;100.00;50428.41;5026226;28;20163;-60
2021/11/06 05:18:24;;;;;;;6.10;3.30;;;;;;;-149.78;100.00;50381.47;5030642;28;20064;-60
2021/11/06 05:20:51;;;;;;;6.78;3.40;;;;;;;-149.78;100.00;50455.81;5033316;28;20465;-60
2021/11/06 05:23:17;;;;;;;6.72;3.70;;;;;;;-149.78;100.00;50467.53;5036972;28;20491;-60
2021/11/06 05:25:44;;;;;;;7.93;4.22;;;;;;;-149.78;100.00;50459.72;5030549;28;20073;-60
2021/11/06 05:28:14;;;;;;;7.60;4.50;;;;;;;-149.78;100.00;50432.31;5036410;28;20053;-60
2021/11/06 05:30:40;;;;;;;7.70;4.80;;;;;;;-149.78;100.00;50436.25;5027271;28;20046;-60
2021/11/06 05:33:06;;;;;;;8.68;5.68;;;;;;;-149.78;100.00;50483.19;5031409;28;20073;-60
2021/11/06 05:35:32;;;;;;;9.63;6.53;;;;;;;-149.78;100.00;50451.88;5029837;28;20116;-60
2021/11/06 05:37:58;;;;;;;9.90;6.07;;;;;;;-149.78;100.00;50436.25;5031543;28;20050;-60
2021/11/06 05:40:24;;;;;;;13.23;6.53;;;;;;;-149.78;100.00;50447.97;5016308;28;20498;-60
2021/11/06 05:42:49;;;;;;;10.35;6.28;;;;;;;-149.78;100.00;50440.16;5033215;28;20040;-60
2021/11/06 05:45:15;;;;;;;11.13;6.03;;;;;;;-149.78;100.00;50481.22;5036447;28;20040;-60
2021/11/06 05:47:41;;;;;;;11.13;6.35;;;;;;;-149.78;100.00;50469.50;5021859;28;20054;-60
2021/11/06 05:50:09;;;;;;;11.80;6.13;;;;;;;-149.78;100.00;50463.63;5034944;28;20500;-60
2021/11/06 05:52:36;;;;;;;15.50;6.47;;;;;;;-149.78;100.00;50401.03;5023841;28;20073;-59
2021/11/06 05:55:06;;;;;;;12.38;6.50;;;;;;;-149.78;100.00;50447.97;5033853;28;20124;-60
2021/11/06 05:57:34;;;;;;;12.73;6.65;;;;;;;-149.78;100.00;50475.34;5027680;28;20081;-60
2021/11/06 06:00:00;;;;;;;13.80;6.45;;;;;;;-149.78;100.00;50471.44;5025707;28;20083;-60
2021/11/06 06:02:25;;;;;;;12.23;6.50;;;;;;;-149.78;100.00;50440.16;5041053;28;20472;-60
2021/11/06 06:04:51;;;;;;;12.00;6.40;;;;;;;-149.78;100.00;50449.94;5032550;28;20128;-60
2021/11/06 06:07:17;;;;;;;13.43;7.28;;;;;;;-149.78;100.00;50436.25;5034486;28;20041;-60
2021/11/06 06:09:43;;;;;;;10.93;6.13;;;;;;;-149.78;100.00;50475.34;5034067;28;20603;-60
2021/11/06 06:12:09;;;;;;;12.05;6.57;;;;;;;-149.78;100.00;50455.81;5026657;28;20045;-60
2021/11/06 06:14:35;;;;;;;12.82;6.35;;;;;;;-149.78;100.00;50463.63;5025829;28;20068;-59
2021/11/06 06:17:00;;;;;;;14.63;7.15;;;;;;;-149.78;100.00;50447.97;5028350;28;20058;-59
2021/11/06 06:19:26;;;;;;;11.85;6.22;;;;;;;-149.78;100.00;50404.94;5018329;28;20045;-59
2021/11/06 06:21:51;;;;;;;13.10;6.30;;;;;;;-149.78;100.00;50453.84;5028215;28;20049;-60
2021/11/06 06:24:17;;;;;;;11.73;5.82;;;;;;;-149.78;100.00;50506.66;5035160;28;20036;-60
2021/11/06 06:26:43;;;;;;;11.60;6.38;;;;;;;-149.78;100.00;50459.72;5034209;28;20402;-59
2021/11/06 06:29:08;;;;;;;12.40;6.22;;;;;;;-149.78;100.00;50483.19;5037005;28;20051;-60
2021/11/06 06:31:35;;;;;;;11.48;5.95;;;;;;;-149.78;100.00;50485.13;5017915;28;20072;-60
2021/11/06 06:34:01;;;;;;;11.88;6.18;;;;;;;-149.78;100.00;50459.72;5030316;28;20038;-60
2021/11/06 06:36:26;;;;;;;10.40;5.68;;;;;;;-149.78;100.00;50502.75;5025596;28;20034;-60
2021/11/06 06:38:52;;;;;;;13.32;6.45;;;;;;;-149.78;100.00;50428.41;5028187;28;20033;-60
2021/11/06 06:41:18;;;;;;;8.93;5.40;;;;;;;-149.78;100.00;50463.63;5015202;28;20373;-59
2021/11/06 06:43:43;;;;;;;11.45;5.63;;;;;;;-149.78;100.00;50457.75;5015309;28;20350;-59
2021/11/06 06:46:09;;;;;;;12.63;5.68;;;;;;;-149.78;100.00;50428.41;5029145;28;20393;-60
2021/11/06 06:48:35;;;;;;;7.63;4.97;;;;;;;-149.78;100.00;50432.31;5023723;28;20083;-60
2021/11/06 06:51:00;;;;;;;10.23;5.03;;;;;;;-149.78;100.00;50440.16;5034225;28;20092;-59
2021/11/06 06:53:26;;;;;;;9.65;5.00;;;;;;;-149.78;100.00;50422.56;5027355;28;20026;-60
2021/11/06 06:55:51;;;;;;;11.65;4.88;;;;;;;-149.78;100.00;50424.50;5027458;28;20044;-59
2021/11/06 06:58:18;;;;;;;8.52;4.93;;;;;;;-149.78;100.00;50440.16;5015886;28;20489;-60
2021/11/06 07:00:44;;;;;;;10.77;5.97;;;;;;;-149.78;100.00;50479.28;5031305;28;20460;-60
2021/11/06 07:03:09;;;;;;;9.38;5.65;;;;;;;-149.78;100.00;50467.53;5028475;28;20065;-59
2021/11/06 07:05:35;;;;;;;9.05;5.10;;;;;;;-149.78;100.00;50479.28;5026856;28;20037;-60
2021/11/06 07:08:00;;;;;;;11.48;5.68;;;;;;;-149.78;100.00;50471.44;5032712;28;20039;-59
2021/11/06 07:10:26;;;;;;;19.10;6.85;;;;;;;-149.78;100.00;50463.63;5025392;28;20466;-59
2021/11/06 07:12:52;;;;;;;10.38;5.78;;;;;;;-149.78;100.00;50471.44;5026592;28;20057;-59
2021/11/06 07:15:18;;;;;;;9.57;5.47;;;;;;;-149.78;100.00;50465.56;5033512;28;20026;-59
2021/11/06 07:17:44;;;;;;;14.80;5.63;;;;;;;-149.78;100.00;50428.41;5033412;28;20769;-59
2021/11/06 07:20:10;;;;;;;12.45;5.30;;;;;;;-149.78;100.00;50451.88;5031940;28;20173;-59
2021/11/06 07:22:36;;;;;;;9.63;5.55;;;;;;;-149.78;100.00;50447.97;5035413;28;20033;-59
2021/11/06 07:25:06;;;;;;;9.88;5.72;;;;;;;-149.78;100.00;50451.88;5035534;28;20032;-59
2021/11/06 07:27:31;;;;;;;11.70;5.57;;;;;;;-149.78;100.00;50459.72;5029943;28;20044;-60
2021/11/06 07:29:58;;;;;;;13.52;6.07;;;;;;;-149.78;100.00;50479.28;5033355;28;20037;-62
2021/11/06 07:32:24;;;;;;;10.73;6.40;;;;;;;-149.78;100.00;50436.25;5028902;28;20385;-59
2021/11/06 07:34:50;;;;;;;8.65;5.20;;;;;;;-149.78;100.00;50451.88;5028978;28;20052;-59
2021/11/06 07:37:15;;;;;;;13.90;6.07;;;;;;;-149.78;100.00;50463.63;5029304;28;20441;-62
2021/11/06 07:39:41;;;;;;;13.60;5.53;;;;;;;-149.78;100.00;50475.34;5029339;28;20041;-61
2021/11/06 07:42:07;;;;;;;10.98;4.85;;;;;;;-149.78;100.00;50447.97;5029095;28;20064;-61
2021/11/06 07:44:33;;;;;;;8.88;4.95;;;;;;;-149.78;100.00;50440.16;5025832;28;20033;-61
2021/11/06 07:46:58;;;;;;;8.25;4.82;;;;;;;-149.78;100.00;50487.09;5027753;28;20026;-61
2021/11/06 07:49:25;;;;;;;7.22;4.32;;;;;;;-149.78;100.00;50479.28;5028088;28;20163;-61
2021/11/06 07:51:52;;;;;;;7.20;4.55;;;;;;;-149.78;100.00;50440.16;5029936;28;20128;-63
2021/11/06 07:54:18;;;;;;;6.53;4.20;;;;;;;-149.78;100.00;50475.34;5022117;28;20492;-60
2021/11/06 07:56:44;;;;;;;7.03;4.05;;;;;;;-149.78;100.00;50491.00;5030197;28;20049;-60
2021/11/06 07:59:10;;;;;;;5.90;3.47;;;;;;;-149.78;100.00;50455.81;5029780;28;20061;-59
2021/11/06 08:01:35;;;;;;;5.03;3.40;;;;;;;-149.78;100.00;50420.59;5032810;28;20124;-59
2021/11/06 08:04:01;;;;;;;7.53;3.10;;;;;;;-149.78;100.00;50428.41;5028732;28;20129;-58
2021/11/06 08:06:27;;;;;;;4.60;2.78;;;;;;;-149.78;100.00;50408.84;5027410;28;20029;-59
2021/11/06 08:08:52;;;;;;;7.63;3.30;;;;;;;-149.78;100.00;50447.97;5032696;28;20088;-58
2021/11/06 08:11:18;;;;;;;6.53;3.72;;;;;;;-149.78;100.00;50455.81;5026552;28;20033;-59
2021/11/06 08:13:43;;;;;;;6.47;3.65;;;;;;;-149.78;100.00;50455.81;5029152;28;20064;-59
2021/11/06 08:16:09;;;;;;;9.95;4.07;;;;;;;-149.78;100.00;50434.28;5032370;28;20037;-59
2021/11/06 08:18:35;;;;;;;6.38;3.60;;;;;;;-149.78;100.00;50459.72;5030107;28;20037;-58
2021/11/06 08:21:01;;;;;;;7.55;4.05;;;;;;;-149.78;100.00;50436.25;5028990;28;20087;-58
2021/11/06 08:23:27;;;;;;;7.80;4.28;;;;;;;-149.78;100.00;50451.88;5030067;28;20061;-59
2021/11/06 08:25:52;;;;;;;7.55;4.38;;;;;;;-149.78;100.00;50416.69;5029035;28;20032;-59
2021/11/06 08:28:18;;;;;;;9.20;4.38;;;;;;;-149.78;100.00;50451.88;5029897;28;20095;-60
2021/11/06 08:30:44;;;;;;;7.82;3.67;;;;;;;-149.78;100.00;50471.44;5029187;28;20037;-59
2021/11/06 08:33:10;;;;;;;4.75;2.97;;;;;;;-149.78;100.00;50459.72;5030073;28;20033;-59
2021/11/06 08:35:37;;;;;;;6.97;3.47;;;;;;;-149.78;100.00;50436.25;5030026;28;20021;-59
2021/11/06 08:38:04;;;;;;;5.40;3.30;;;;;;;-149.78;100.00;50424.50;5029081;28;20041;-60
2021/11/06 08:40:29;;;;;;;6.38;3.25;;;;;;;-149.78;100.00;50432.31;5029107;28;20032;-59
2021/11/06 08:42:56;;;;;;;4.70;2.80;;;;;;;-149.78;100.00;50459.72;5029568;28;20037;-59
2021/11/06 08:45:22;;;;;;;3.95;2.85;;;;;;;-149.78;100.00;50424.50;5029456;28;20485;-59
2021/11/06 08:47:48;;;;;;;5.13;2.55;;;;;;;-149.78;100.00;50455.81;5028351;28;20045;-61
2021/11/06 08:50:26;;;;;;;8.20;2.20;;;;;;;-149.78;100.00;50440.16;5028118;28;20033;-60
2021/11/06 08:52:53;;;;;;;3.17;2.20;;;;;;;-149.78;100.00;50434.28;5024415;28;20029;-59
2021/11/06 08:55:19;;;;;;;6.45;1.92;;;;;;;-149.78;100.00;50463.63;5027505;28;20045;-60
2021/11/06 08:57:46;;;;;;;4.55;1.80;;;;;;;-149.78;100.00;50420.59;5028723;28;20052;-60
2021/11/06 09:00:21;;;;;;;3.10;1.77;;;;;;;-149.78;100.00;50440.16;5027462;28;20034;-59
2021/11/06 09:02:46;;;;;;;3.38;1.63;;;;;;;-149.78;100.00;50424.50;5031620;28;20025;-60
2021/11/06 09:05:12;;;;;;;1.85;1.40;;;;;;;-149.78;100.00;50451.88;5029639;28;20064;-60
2021/11/06 09:07:38;;;;;;;3.88;1.50;;;;;;;-149.78;100.00;50412.78;5021962;28;20083;-60
2021/11/06 09:10:08;;;;;;;2.53;1.50;;;;;;;-149.78;100.00;50465.56;5023081;28;20052;-60
2021/11/06 09:12:34;;;;;;;4.85;1.95;;;;;;;-149.78;100.00;50436.25;5028313;28;20075;-59
2021/11/06 09:15:00;;;;;;;3.17;1.70;;;;;;;-149.78;100.00;50424.50;5028986;28;20069;-60
2021/11/06 09:17:27;;;;;;;3.80;1.45;;;;;;;-149.78;100.00;50428.41;5028631;28;20057;-60
2021/11/06 09:19:53;;;;;;;4.95;1.30;;;;;;;-149.78;100.00;50391.25;5029943;28;20124;-61
2021/11/06 09:22:18;;;;;;;4.28;1.50;;;;;;;-149.78;100.00;50428.41;5029694;28;20116;-61
2021/11/06 09:24:44;;;;;;;3.72;1.60;;;;;;;-149.78;100.00;50369.75;5028984;28;20045;-61
2021/11/06 09:27:11;;;;;;;11.07;5.63;;;;;;;-149.78;100.00;50428.41;5030641;28;20025;-60
2021/11/06 09:29:37;;;;;;;6.60;3.25;;;;;;;-149.78;100.00;50408.84;5032795;28;20044;-61
2021/11/06 09:32:03;;;;;;;3.88;1.88;;;;;;;-149.78;100.00;50420.59;5030086;28;20452;-60
2021/11/06 09:34:29;;;;;;;4.88;1.92;;;;;;;-149.78;100.00;50420.59;5014167;28;20053;-60
2021/11/06 09:36:56;;;;;;;2.30;1.23;;;;;;;-149.78;100.00;50410.81;5023968;28;20774;-62
2021/11/06 09:39:22;;;;;;;5.95;3.72;;;;;;;-149.78;100.00;50393.22;5038313;28;20037;-60
2021/11/06 09:41:48;;;;;;;1.38;1.20;;;;;;;-149.78;100.00;50397.13;5039513;28;20044;-60
2021/11/06 09:44:13;;;;;;;2.95;2.13;;;;;;;-149.78;100.00;50424.50;5021745;28;20037;-60
2021/11/06 09:46:39;;;;;;;1.08;0.95;;;;;;;-149.78;100.00;50408.84;5032376;28;20454;-60
2021/11/06 09:49:05;;;;;;;4.63;1.33;;;;;;;-149.78;100.00;50412.78;5035307;28;20033;-60
2021/11/06 09:51:30;;;;;;;2.97;1.00;;;;;;;-149.78;100.00;50416.69;5031312;28;20429;-60
2021/11/06 09:53:56;;;;;;;2.63;1.00;;;;;;;-149.78;100.00;50422.56;5030827;28;20121;-61
2021/11/06 09:56:25;;;;;;;2.72;1.23;;;;;;;-149.78;100.00;50408.84;5026416;28;20030;-61
2021/11/06 09:58:54;;;;;;;4.88;1.27;;;;;;;-149.78;100.00;50447.97;5027925;28;20033;-61
2021/11/06 10:01:21;;;;;;;4.55;1.13;;;;;;;-149.78;100.00;50424.50;5026867;28;20026;-64
2021/11/06 10:03:46;;;;;;;4.25;1.45;;;;;;;-149.78;100.00;50432.31;5027114;28;20523;-61
2021/11/06 10:06:20;;;;;;;3.20;1.30;;;;;;;-149.78;100.00;50428.41;5031751;28;20029;-62
2021/11/06 10:08:47;;;;;;;3.72;1.55;;;;;;;-149.78;100.00;50440.16;5030872;28;20546;-61
2021/11/06 10:11:19;;;;;;;3.92;1.42;;;;;;;-149.78;100.00;50393.22;5033935;28;20546;-61
2021/11/06 10:13:49;;;;;;;5.03;1.80;;;;;;;-149.78;100.00;50449.94;5032981;28;20415;-61
2021/11/06 10:16:18;;;;;;;7.32;2.22;;;;;;;-149.78;100.00;50451.88;5031740;28;20034;-61
2021/11/06 10:18:43;;;;;;;2.85;1.58;;;;;;;-149.78;100.00;50461.66;5038986;28;20025;-61
2021/11/06 10:21:09;;;;;;;3.58;1.50;;;;;;;-149.78;100.00;50381.47;5029238;28;20403;-61
2021/11/06 10:23:41;;;;;;;7.57;1.90;;;;;;;-149.78;100.00;50467.53;5032511;28;20095;-62
2021/11/06 10:26:14;;;;;;;5.72;2.15;;;;;;;-149.78;100.00;50422.56;5028473;28;20444;-62
2021/11/06 10:28:41;;;;;;;8.45;2.40;;;;;;;-149.78;100.00;50459.72;5029015;28;20036;-62
2021/11/06 10:31:07;;;;;;;3.53;2.08;;;;;;;-149.78;100.00;50459.72;5030661;28;20088;-60
2021/11/06 10:33:47;;;;;;;10.98;4.07;;;;;;;-149.78;100.00;50424.50;5028595;28;20033;-60
2021/11/06 10:36:27;;;;;;;6.15;2.30;;;;;;;-149.78;100.00;50440.16;5028376;28;20025;-63
2021/11/06 10:39:10;;;;;;;5.18;2.47;;;;;;;-149.78;100.00;50424.50;5030091;28;20088;-61
2021/11/06 10:41:41;;;;;;;4.50;2.05;;;;;;;-149.78;100.00;50471.44;5029763;28;20512;-61
2021/11/06 10:44:08;;;;;;;4.70;2.20;;;;;;;-149.78;100.00;50455.81;5012204;28;20469;-61
2021/11/06 10:46:35;;;;;;;4.95;2.05;;;;;;;-149.78;100.00;50428.41;5030109;28;20033;-62
2021/11/06 10:49:03;;;;;;;4.13;2.22;;;;;;;-149.78;100.00;50451.88;5031913;28;20120;-63
2021/11/06 10:51:29;;;;;;;3.08;1.90;;;;;;;-149.78;100.00;50426.47;5032635;28;20056;-62
2021/11/06 10:54:00;;;;;;;4.32;2.10;;;;;;;-149.78;100.00;50451.88;5029074;28;20045;-61
2021/11/06 10:56:32;;;;;;;6.07;2.22;;;;;;;-149.78;100.00;50418.63;5031605;28;20033;-63
2021/11/06 10:59:07;;;;;;;5.53;2.20;;;;;;;-149.78;100.00;50473.41;5030954;28;20041;-62
2021/11/06 11:01:53;;;;;;;4.35;2.50;;;;;;;-149.78;100.00;50473.41;5029367;28;20048;-62
2021/11/06 11:04:21;;;;;;;5.97;2.40;;;;;;;-149.78;100.00;50440.16;5031624;28;20069;-61